createdAt,value
2023-08-07T00:00:10.803Z,14.07
2023-08-07T00:00:42.869Z,14.09
2023-08-07T00:01:15.303Z,14.07
2023-08-07T00:01:47.232Z,14.04
2023-08-07T00:02:19.133Z,14.04
2023-08-07T00:02:51.365Z,14.08
2023-08-07T00:03:23.335Z,14.10
2023-08-07T00:03:55.317Z,14.04
2023-08-07T00:04:27.253Z,14.00
2023-08-07T00:04:59.170Z,14.04
2023-08-07T00:05:31.432Z,14.04
2023-08-07T00:06:03.521Z,14.05
2023-08-07T00:06:35.556Z,14.07
2023-08-07T00:07:07.465Z,14.05
2023-08-07T00:07:39.347Z,14.07
2023-08-07T00:08:11.200Z,14.07
2023-08-07T00:08:43.103Z,14.01
2023-08-07T00:09:15.028Z,13.97
2023-08-07T00:09:46.995Z,13.94
2023-08-07T00:10:19.090Z,13.90
2023-08-07T00:10:51.284Z,13.84
2023-08-07T00:11:23.242Z,13.82
2023-08-07T00:11:55.354Z,13.79
2023-08-07T00:12:27.530Z,13.90
2023-08-07T00:12:59.409Z,13.91
2023-08-07T00:13:31.279Z,13.95
2023-08-07T00:14:03.351Z,13.99
2023-08-07T00:14:35.223Z,14.03
2023-08-07T00:15:07.904Z,14.07
2023-08-07T00:15:40.253Z,14.12
2023-08-07T00:16:12.568Z,14.12
2023-08-07T00:16:46.092Z,14.06
2023-08-07T00:17:18.322Z,14.09
2023-08-07T00:17:50.295Z,14.08
2023-08-07T00:18:22.333Z,14.11
2023-08-07T00:18:57.392Z,14.12
2023-08-07T00:19:30.302Z,14.13
2023-08-07T00:20:02.540Z,14.14
2023-08-07T00:20:34.633Z,14.13
2023-08-07T00:21:06.506Z,14.14
2023-08-07T00:21:39.091Z,14.16
2023-08-07T00:22:11.020Z,14.15
2023-08-07T00:22:43.031Z,14.18
2023-08-07T00:23:15.022Z,14.16
2023-08-07T00:23:46.896Z,14.06
2023-08-07T00:24:18.836Z,14.04
2023-08-07T00:24:50.796Z,14.04
2023-08-07T00:25:22.704Z,14.07
2023-08-07T00:25:54.617Z,14.10
2023-08-07T00:26:26.927Z,14.07
2023-08-07T00:26:59.000Z,14.05
2023-08-07T00:27:31.000Z,14.02
2023-08-07T00:28:02.855Z,14.05
2023-08-07T00:28:34.904Z,14.13
2023-08-07T00:29:06.897Z,14.17
2023-08-07T00:29:39.055Z,14.09
2023-08-07T00:30:11.677Z,14.12
2023-08-07T00:30:43.647Z,14.14
2023-08-07T00:31:15.726Z,14.15
2023-08-07T00:31:47.687Z,14.14
2023-08-07T00:32:19.644Z,14.17
2023-08-07T00:32:51.586Z,14.16
2023-08-07T00:33:24.065Z,14.15
2023-08-07T00:33:57.082Z,14.17
2023-08-07T00:34:28.952Z,14.13
2023-08-07T00:35:00.837Z,14.13
2023-08-07T00:35:32.702Z,14.15
2023-08-07T00:36:05.029Z,14.15
2023-08-07T00:36:36.963Z,14.18
2023-08-07T00:37:08.942Z,14.17
2023-08-07T00:37:40.819Z,14.12
2023-08-07T00:38:12.713Z,14.09
2023-08-07T00:38:44.585Z,14.09
2023-08-07T00:39:16.437Z,14.11
2023-08-07T00:39:48.418Z,14.13
2023-08-07T00:40:20.370Z,14.17
2023-08-07T00:40:52.321Z,14.15
2023-08-07T00:41:24.427Z,14.12
2023-08-07T00:41:56.337Z,14.06
2023-08-07T00:42:28.194Z,14.07
2023-08-07T00:43:00.100Z,14.11
2023-08-07T00:43:31.966Z,14.16
2023-08-07T00:44:04.091Z,14.16
2023-08-07T00:44:36.510Z,14.17
2023-08-07T00:45:09.092Z,14.18
2023-08-07T00:45:47.453Z,14.11
2023-08-07T00:46:20.329Z,14.06
2023-08-07T00:46:53.132Z,14.09
2023-08-07T00:47:26.156Z,14.08
2023-08-07T00:47:58.281Z,14.11
2023-08-07T00:48:30.757Z,14.13
2023-08-07T00:49:04.768Z,14.12
2023-08-07T00:49:37.696Z,14.07
2023-08-07T00:50:10.412Z,14.07
2023-08-07T00:50:47.656Z,14.15
2023-08-07T00:51:21.319Z,14.15
2023-08-07T00:51:54.203Z,14.10
2023-08-07T00:52:26.779Z,14.02
2023-08-07T00:53:01.934Z,14.02
2023-08-07T00:53:33.903Z,14.11
2023-08-07T00:54:07.057Z,14.17
2023-08-07T00:54:39.642Z,14.24
2023-08-07T00:55:11.856Z,14.27
2023-08-07T00:55:44.283Z,14.18
2023-08-07T00:56:16.783Z,14.24
2023-08-07T00:56:49.034Z,14.32
2023-08-07T00:57:24.143Z,14.45
2023-08-07T00:57:56.172Z,14.53
2023-08-07T00:58:28.047Z,14.51
2023-08-07T00:59:00.586Z,14.49
2023-08-07T00:59:32.542Z,14.54
2023-08-07T01:00:05.749Z,14.56
2023-08-07T01:00:38.311Z,14.56
2023-08-07T01:01:10.398Z,14.61
2023-08-07T01:01:42.692Z,14.66
2023-08-07T01:02:15.186Z,14.69
2023-08-07T01:02:50.207Z,14.69
2023-08-07T01:03:22.217Z,14.75
2023-08-07T01:03:54.347Z,14.75
2023-08-07T01:04:27.616Z,14.77
2023-08-07T01:04:59.708Z,14.75
2023-08-07T01:05:31.826Z,14.70
2023-08-07T01:06:03.884Z,14.69
2023-08-07T01:06:35.828Z,14.69
2023-08-07T01:07:08.044Z,14.69
2023-08-07T01:07:39.944Z,14.86
2023-08-07T01:08:12.491Z,14.94
2023-08-07T01:08:45.320Z,14.92
2023-08-07T01:09:18.014Z,14.87
2023-08-07T01:09:50.158Z,14.87
2023-08-07T01:10:34.538Z,14.94
2023-08-07T01:11:19.034Z,14.98
2023-08-07T01:12:10.430Z,15.02
2023-08-07T01:12:59.595Z,14.93
2023-08-07T01:13:46.766Z,14.94
2023-08-07T01:14:38.789Z,14.98
2023-08-07T01:15:17.409Z,14.97
2023-08-07T01:15:56.624Z,14.98
2023-08-07T01:16:49.627Z,14.94
2023-08-07T01:17:24.806Z,14.94
2023-08-07T01:17:57.821Z,14.99
2023-08-07T01:18:32.339Z,15.02
2023-08-07T01:19:10.050Z,15.01
2023-08-07T01:19:42.665Z,15.03
2023-08-07T01:20:15.412Z,15.02
2023-08-07T01:20:47.289Z,15.04
2023-08-07T01:21:20.665Z,15.09
2023-08-07T01:22:15.813Z,15.03
2023-08-07T01:22:47.715Z,15.11
2023-08-07T01:23:19.657Z,15.07
2023-08-07T01:23:51.598Z,15.04
2023-08-07T01:24:23.455Z,15.01
2023-08-07T01:24:55.310Z,15.00
2023-08-07T01:25:27.470Z,14.96
2023-08-07T01:25:59.481Z,14.97
2023-08-07T01:26:33.753Z,14.98
2023-08-07T01:27:30.349Z,14.96
2023-08-07T01:28:33.443Z,14.88
2023-08-07T01:29:25.084Z,14.86
2023-08-07T01:30:25.060Z,14.81
2023-08-07T01:31:05.379Z,14.76
2023-08-07T01:31:40.713Z,14.73
2023-08-07T01:32:19.110Z,14.72
2023-08-07T01:33:10.960Z,14.68
2023-08-07T01:34:09.754Z,14.69
2023-08-07T01:34:43.637Z,14.66
2023-08-07T01:35:17.716Z,14.56
2023-08-07T01:35:54.627Z,14.54
2023-08-07T01:36:29.872Z,14.58
2023-08-07T01:37:04.614Z,14.54
2023-08-07T01:37:40.808Z,14.52
2023-08-07T01:38:14.203Z,14.54
2023-08-07T01:38:47.561Z,14.56
2023-08-07T01:39:21.870Z,14.54
2023-08-07T01:39:56.327Z,14.55
2023-08-07T01:40:29.698Z,14.53
2023-08-07T01:41:03.083Z,14.56
2023-08-07T01:41:37.181Z,14.53
2023-08-07T01:42:09.558Z,14.49
2023-08-07T01:42:42.243Z,14.45
2023-08-07T01:43:14.248Z,14.44
2023-08-07T01:43:46.584Z,14.46
2023-08-07T01:44:18.564Z,14.45
2023-08-07T01:44:51.006Z,14.41
2023-08-07T01:45:27.468Z,14.36
2023-08-07T01:45:59.789Z,14.37
2023-08-07T01:46:31.850Z,14.33
2023-08-07T01:47:03.904Z,14.36
2023-08-07T01:47:36.423Z,14.36
2023-08-07T01:48:08.534Z,14.36
2023-08-07T01:48:40.493Z,14.35
2023-08-07T01:49:12.481Z,14.32
2023-08-07T01:49:44.558Z,14.31
2023-08-07T01:50:16.601Z,14.30
2023-08-07T01:50:48.695Z,14.24
2023-08-07T01:51:20.653Z,14.19
2023-08-07T01:51:52.559Z,14.13
2023-08-07T01:52:24.532Z,14.12
2023-08-07T01:52:56.422Z,14.08
2023-08-07T01:53:28.414Z,14.10
2023-08-07T01:54:00.281Z,14.08
2023-08-07T01:54:32.196Z,14.09
2023-08-07T01:55:04.361Z,14.09
2023-08-07T01:55:36.339Z,14.03
2023-08-07T01:56:08.328Z,14.02
2023-08-07T01:56:40.312Z,14.05
2023-08-07T01:57:12.216Z,14.00
2023-08-07T01:57:44.927Z,13.95
2023-08-07T01:58:16.812Z,13.90
2023-08-07T01:58:48.712Z,13.83
2023-08-07T01:59:20.614Z,13.88
2023-08-07T01:59:53.396Z,13.87
2023-08-07T02:00:25.393Z,13.85
2023-08-07T02:00:57.344Z,13.85
2023-08-07T02:01:29.284Z,13.85
2023-08-07T02:02:01.343Z,13.82
2023-08-07T02:02:33.311Z,13.83
2023-08-07T02:03:05.285Z,13.83
2023-08-07T02:03:37.514Z,13.81
2023-08-07T02:04:09.481Z,13.80
2023-08-07T02:04:41.369Z,13.81
2023-08-07T02:05:13.565Z,13.82
2023-08-07T02:05:47.466Z,13.81
2023-08-07T02:06:19.427Z,13.81
2023-08-07T02:06:51.430Z,13.80
2023-08-07T02:07:23.291Z,13.78
2023-08-07T02:07:57.786Z,13.80
2023-08-07T02:08:29.788Z,13.77
2023-08-07T02:09:01.666Z,13.79
2023-08-07T02:09:33.587Z,13.78
2023-08-07T02:10:06.896Z,13.76
2023-08-07T02:10:38.946Z,13.78
2023-08-07T02:11:10.842Z,13.75
2023-08-07T02:11:43.790Z,13.68
2023-08-07T02:12:16.839Z,13.65
2023-08-07T02:12:48.884Z,13.65
2023-08-07T02:13:20.799Z,13.65
2023-08-07T02:13:52.732Z,13.60
2023-08-07T02:14:24.681Z,13.57
2023-08-07T02:14:56.644Z,13.58
2023-08-07T02:15:28.655Z,13.56
2023-08-07T02:16:00.651Z,13.55
2023-08-07T02:16:32.725Z,13.57
2023-08-07T02:17:04.946Z,13.57
2023-08-07T02:17:42.559Z,13.58
2023-08-07T02:18:14.607Z,13.58
2023-08-07T02:18:46.519Z,13.56
2023-08-07T02:19:18.436Z,13.56
2023-08-07T02:19:50.432Z,13.58
2023-08-07T02:20:22.419Z,13.59
2023-08-07T02:20:54.389Z,13.60
2023-08-07T02:21:26.283Z,13.61
2023-08-07T02:21:58.223Z,13.60
2023-08-07T02:22:30.130Z,13.61
2023-08-07T02:23:02.083Z,13.57
2023-08-07T02:23:35.563Z,13.58
2023-08-07T02:24:07.479Z,13.57
2023-08-07T02:24:39.590Z,13.57
2023-08-07T02:25:11.479Z,13.58
2023-08-07T02:25:43.419Z,13.59
2023-08-07T02:26:15.332Z,13.58
2023-08-07T02:26:47.261Z,13.58
2023-08-07T02:27:19.178Z,13.56
2023-08-07T02:27:51.129Z,13.55
2023-08-07T02:28:23.055Z,13.55
2023-08-07T02:28:54.962Z,13.51
2023-08-07T02:29:26.905Z,13.51
2023-08-07T02:29:58.935Z,13.49
2023-08-07T02:30:32.407Z,13.50
2023-08-07T02:31:04.455Z,13.49
2023-08-07T02:31:36.352Z,13.50
2023-08-07T02:32:08.537Z,13.46
2023-08-07T02:32:42.718Z,13.46
2023-08-07T02:33:14.648Z,13.46
2023-08-07T02:33:46.542Z,13.45
2023-08-07T02:34:18.435Z,13.44
2023-08-07T02:34:50.302Z,13.43
2023-08-07T02:35:22.437Z,13.44
2023-08-07T02:35:54.366Z,13.43
2023-08-07T02:36:26.279Z,13.43
2023-08-07T02:36:58.288Z,13.41
2023-08-07T02:37:30.393Z,13.37
2023-08-07T02:38:02.317Z,13.38
2023-08-07T02:38:34.480Z,13.34
2023-08-07T02:39:06.422Z,13.36
2023-08-07T02:39:38.619Z,13.37
2023-08-07T02:40:12.179Z,13.33
2023-08-07T02:40:44.930Z,13.35
2023-08-07T02:41:16.831Z,13.33
2023-08-07T02:41:48.820Z,13.34
2023-08-07T02:42:21.210Z,13.32
2023-08-07T02:42:53.221Z,13.32
2023-08-07T02:43:25.185Z,13.33
2023-08-07T02:43:57.118Z,13.33
2023-08-07T02:44:29.036Z,13.36
2023-08-07T02:45:00.972Z,13.36
2023-08-07T02:45:32.943Z,13.38
2023-08-07T02:46:05.081Z,13.36
2023-08-07T02:46:37.375Z,13.36
2023-08-07T02:47:09.273Z,13.36
2023-08-07T02:47:41.384Z,13.35
2023-08-07T02:48:13.579Z,13.35
2023-08-07T02:48:45.632Z,13.36
2023-08-07T02:49:17.599Z,13.36
2023-08-07T02:49:49.513Z,13.35
2023-08-07T02:50:21.433Z,13.32
2023-08-07T02:50:54.371Z,13.33
2023-08-07T02:51:26.307Z,13.33
2023-08-07T02:51:58.229Z,13.32
2023-08-07T02:52:31.290Z,13.31
2023-08-07T02:53:03.789Z,13.30
2023-08-07T02:53:35.707Z,13.29
2023-08-07T02:54:07.718Z,13.27
2023-08-07T02:54:39.822Z,13.26
2023-08-07T02:55:11.824Z,13.26
2023-08-07T02:55:45.103Z,13.26
2023-08-07T02:56:17.053Z,13.24
2023-08-07T02:56:50.170Z,13.23
2023-08-07T02:57:22.122Z,13.22
2023-08-07T02:57:54.284Z,13.20
2023-08-07T02:58:26.177Z,13.19
2023-08-07T02:59:00.378Z,13.17
2023-08-07T02:59:32.306Z,13.13
2023-08-07T03:00:04.660Z,13.06
2023-08-07T03:00:36.925Z,13.06
2023-08-07T03:01:09.449Z,13.07
2023-08-07T03:01:41.436Z,13.09
2023-08-07T03:02:13.381Z,13.07
2023-08-07T03:02:45.320Z,13.08
2023-08-07T03:03:17.325Z,13.05
2023-08-07T03:03:49.259Z,13.04
2023-08-07T03:04:21.214Z,13.03
2023-08-07T03:04:53.112Z,13.02
2023-08-07T03:05:25.055Z,12.99
2023-08-07T03:05:56.978Z,12.99
2023-08-07T03:06:28.872Z,12.97
2023-08-07T03:07:01.611Z,12.98
2023-08-07T03:07:33.571Z,12.96
2023-08-07T03:08:05.587Z,12.95
2023-08-07T03:08:37.459Z,12.93
2023-08-07T03:09:09.409Z,12.88
2023-08-07T03:09:41.371Z,12.91
2023-08-07T03:10:13.286Z,12.87
2023-08-07T03:10:56.975Z,12.88
2023-08-07T03:11:28.885Z,12.85
2023-08-07T03:12:04.777Z,12.87
2023-08-07T03:12:38.691Z,12.86
2023-08-07T03:13:10.611Z,12.87
2023-08-07T03:13:43.376Z,12.88
2023-08-07T03:14:15.374Z,12.90
2023-08-07T03:14:47.344Z,12.89
2023-08-07T03:15:19.291Z,12.90
2023-08-07T03:15:51.705Z,12.91
2023-08-07T03:16:23.743Z,12.93
2023-08-07T03:16:55.975Z,12.94
2023-08-07T03:17:28.238Z,12.95
2023-08-07T03:18:00.276Z,12.97
2023-08-07T03:18:33.267Z,12.98
2023-08-07T03:19:05.211Z,12.98
2023-08-07T03:19:37.155Z,12.98
2023-08-07T03:20:10.586Z,13.04
2023-08-07T03:20:42.928Z,13.02
2023-08-07T03:21:14.862Z,13.03
2023-08-07T03:21:46.803Z,13.06
2023-08-07T03:22:18.742Z,13.10
2023-08-07T03:22:50.685Z,13.11
2023-08-07T03:23:24.153Z,13.13
2023-08-07T03:23:56.127Z,13.13
2023-08-07T03:24:28.030Z,13.14
2023-08-07T03:24:59.986Z,13.17
2023-08-07T03:25:31.979Z,13.16
2023-08-07T03:26:50.319Z,13.11
2023-08-07T03:27:22.553Z,13.08
2023-08-07T03:27:54.464Z,13.04
2023-08-07T03:28:26.322Z,13.05
2023-08-07T03:28:58.223Z,13.05
2023-08-07T03:29:30.165Z,13.04
2023-08-07T03:30:02.049Z,13.03
2023-08-07T03:30:33.983Z,13.04
2023-08-07T03:31:06.092Z,13.01
2023-08-07T03:31:38.051Z,13.01
2023-08-07T03:32:10.730Z,13.02
2023-08-07T03:32:43.039Z,13.02
2023-08-07T03:33:15.000Z,13.01
2023-08-07T03:33:46.854Z,13.01
2023-08-07T03:34:19.086Z,13.00
2023-08-07T03:34:50.968Z,13.00
2023-08-07T03:35:22.924Z,12.99
2023-08-07T03:35:55.003Z,12.99
2023-08-07T03:36:26.918Z,12.98
2023-08-07T03:37:00.663Z,12.97
2023-08-07T03:37:32.625Z,12.95
2023-08-07T03:38:04.611Z,12.98
2023-08-07T03:38:36.501Z,12.96
2023-08-07T03:39:09.013Z,12.94
2023-08-07T03:39:41.079Z,12.95
2023-08-07T03:40:13.046Z,12.95
2023-08-07T03:40:44.992Z,12.97
2023-08-07T03:41:17.038Z,12.98
2023-08-07T03:41:48.974Z,12.98
2023-08-07T03:42:20.965Z,12.99
2023-08-07T03:42:52.956Z,12.99
2023-08-07T03:43:25.049Z,12.98
2023-08-07T03:43:56.942Z,12.98
2023-08-07T03:44:28.938Z,12.98
2023-08-07T03:45:00.887Z,12.99
2023-08-07T03:45:32.820Z,12.99
2023-08-07T03:46:04.806Z,12.99
2023-08-07T03:46:36.736Z,12.99
2023-08-07T03:47:08.691Z,13.01
2023-08-07T03:47:40.733Z,13.03
2023-08-07T03:48:12.786Z,13.04
2023-08-07T03:48:44.715Z,13.06
2023-08-07T03:49:16.619Z,13.07
2023-08-07T03:49:48.865Z,13.08
2023-08-07T03:50:20.841Z,13.12
2023-08-07T03:50:52.720Z,13.13
2023-08-07T03:51:24.639Z,13.11
2023-08-07T03:51:57.540Z,13.15
2023-08-07T03:52:29.406Z,13.17
2023-08-07T03:53:01.607Z,13.15
2023-08-07T03:53:33.622Z,13.13
2023-08-07T03:54:05.497Z,13.13
2023-08-07T03:54:37.525Z,13.15
2023-08-07T03:55:09.588Z,13.13
2023-08-07T03:55:43.157Z,13.12
2023-08-07T03:56:15.165Z,13.14
2023-08-07T03:56:48.116Z,13.14
2023-08-07T03:57:19.984Z,13.14
2023-08-07T03:57:51.938Z,13.14
2023-08-07T03:58:23.858Z,13.16
2023-08-07T03:58:55.772Z,13.18
2023-08-07T03:59:30.297Z,13.16
2023-08-07T04:00:02.304Z,13.16
2023-08-07T04:00:34.280Z,13.16
2023-08-07T04:01:06.350Z,13.16
2023-08-07T04:01:38.252Z,13.15
2023-08-07T04:02:10.207Z,13.16
2023-08-07T04:02:42.344Z,13.14
2023-08-07T04:03:14.394Z,13.15
2023-08-07T04:03:49.381Z,13.15
2023-08-07T04:04:21.474Z,13.12
2023-08-07T04:04:53.389Z,13.14
2023-08-07T04:05:25.454Z,13.14
2023-08-07T04:05:57.552Z,13.14
2023-08-07T04:06:30.115Z,13.15
2023-08-07T04:07:02.058Z,13.15
2023-08-07T04:07:34.187Z,13.15
2023-08-07T04:08:06.084Z,13.10
2023-08-07T04:08:38.042Z,13.15
2023-08-07T04:09:11.384Z,13.14
2023-08-07T04:09:43.379Z,13.19
2023-08-07T04:10:15.418Z,13.20
2023-08-07T04:10:47.892Z,13.22
2023-08-07T04:11:19.819Z,13.23
2023-08-07T04:11:51.707Z,13.21
2023-08-07T04:12:23.972Z,13.23
2023-08-07T04:12:55.861Z,13.23
2023-08-07T04:13:29.256Z,13.23
2023-08-07T04:14:01.149Z,13.25
2023-08-07T04:14:33.020Z,13.27
2023-08-07T04:15:05.273Z,13.31
2023-08-07T04:15:37.225Z,13.31
2023-08-07T04:16:09.217Z,13.31
2023-08-07T04:16:41.860Z,13.29
2023-08-07T04:17:13.811Z,13.29
2023-08-07T04:17:45.776Z,13.30
2023-08-07T04:18:18.101Z,13.30
2023-08-07T04:18:49.987Z,13.30
2023-08-07T04:19:22.017Z,13.30
2023-08-07T04:19:53.890Z,13.31
2023-08-07T04:20:25.971Z,13.31
2023-08-07T04:20:58.807Z,13.33
2023-08-07T04:21:31.770Z,13.33
2023-08-07T04:22:03.926Z,13.35
2023-08-07T04:22:35.861Z,13.36
2023-08-07T04:23:07.800Z,13.37
2023-08-07T04:23:41.630Z,13.39
2023-08-07T04:24:15.322Z,13.41
2023-08-07T04:24:47.457Z,13.39
2023-08-07T04:25:19.382Z,13.42
2023-08-07T04:25:52.287Z,13.42
2023-08-07T04:26:24.242Z,13.42
2023-08-07T04:26:56.330Z,13.44
2023-08-07T04:27:28.593Z,13.50
2023-08-07T04:28:00.510Z,13.51
2023-08-07T04:28:32.578Z,13.54
2023-08-07T04:29:04.848Z,13.55
2023-08-07T04:29:36.756Z,13.56
2023-08-07T04:30:09.201Z,13.58
2023-08-07T04:30:42.759Z,13.62
2023-08-07T04:31:15.064Z,13.65
2023-08-07T04:31:47.028Z,13.69
2023-08-07T04:32:18.995Z,13.71
2023-08-07T04:32:50.946Z,13.72
2023-08-07T04:33:23.164Z,13.76
2023-08-07T04:33:55.172Z,13.78
2023-08-07T04:34:27.085Z,13.81
2023-08-07T04:35:00.187Z,13.85
2023-08-07T04:35:32.428Z,13.88
2023-08-07T04:36:04.732Z,13.89
2023-08-07T04:36:36.592Z,13.90
2023-08-07T04:37:08.681Z,13.91
2023-08-07T04:37:41.827Z,13.94
2023-08-07T04:38:18.638Z,13.91
2023-08-07T04:38:51.378Z,13.88
2023-08-07T04:39:23.804Z,13.87
2023-08-07T04:39:55.708Z,13.86
2023-08-07T04:40:27.663Z,13.86
2023-08-07T04:40:59.572Z,13.86
2023-08-07T04:41:31.436Z,13.87
2023-08-07T04:42:03.519Z,13.88
2023-08-07T04:42:35.437Z,13.84
2023-08-07T04:43:07.277Z,13.84
2023-08-07T04:43:39.188Z,13.82
2023-08-07T04:44:11.114Z,13.82
2023-08-07T04:44:43.039Z,13.83
2023-08-07T04:45:15.270Z,13.84
2023-08-07T04:45:47.194Z,13.79
2023-08-07T04:46:19.152Z,13.81
2023-08-07T04:46:51.497Z,13.83
2023-08-07T04:47:23.470Z,13.82
2023-08-07T04:47:55.462Z,13.85
2023-08-07T04:48:27.450Z,13.87
2023-08-07T04:49:00.159Z,13.88
2023-08-07T04:49:32.255Z,13.88
2023-08-07T04:50:04.903Z,13.89
2023-08-07T04:50:36.872Z,13.90
2023-08-07T04:51:08.812Z,13.92
2023-08-07T04:51:40.711Z,13.94
2023-08-07T04:52:24.441Z,13.98
2023-08-07T04:52:57.779Z,14.03
2023-08-07T04:53:29.913Z,14.08
2023-08-07T04:54:02.027Z,14.08
2023-08-07T04:54:33.899Z,14.08
2023-08-07T04:55:06.270Z,14.08
2023-08-07T04:55:38.291Z,14.09
2023-08-07T04:56:10.244Z,14.12
2023-08-07T04:56:43.490Z,14.09
2023-08-07T04:57:15.386Z,14.08
2023-08-07T04:57:48.253Z,14.08
2023-08-07T04:58:20.223Z,14.06
2023-08-07T04:58:52.186Z,14.03
2023-08-07T04:59:24.135Z,14.07
2023-08-07T04:59:56.044Z,14.11
2023-08-07T05:00:28.763Z,14.17
2023-08-07T05:01:01.423Z,14.17
2023-08-07T05:01:33.396Z,14.15
2023-08-07T05:02:05.825Z,14.18
2023-08-07T05:02:37.874Z,14.24
2023-08-07T05:03:10.121Z,14.28
2023-08-07T05:03:42.350Z,14.34
2023-08-07T05:04:14.299Z,14.41
2023-08-07T05:04:46.576Z,14.42
2023-08-07T05:05:22.510Z,14.47
2023-08-07T05:06:01.629Z,14.57
2023-08-07T05:06:33.753Z,14.62
2023-08-07T05:07:05.913Z,14.68
2023-08-07T05:07:37.932Z,14.71
2023-08-07T05:08:09.842Z,14.75
2023-08-07T05:08:42.101Z,14.77
2023-08-07T05:09:14.045Z,14.83
2023-08-07T05:09:46.010Z,14.86
2023-08-07T05:10:18.083Z,14.91
2023-08-07T05:10:50.002Z,14.98
2023-08-07T05:11:21.916Z,15.03
2023-08-07T05:11:54.068Z,15.12
2023-08-07T05:12:26.204Z,15.18
2023-08-07T05:12:58.212Z,15.26
2023-08-07T05:13:30.118Z,15.32
2023-08-07T05:14:03.357Z,15.32
2023-08-07T05:14:35.293Z,15.30
2023-08-07T05:15:07.815Z,15.36
2023-08-07T05:15:39.758Z,15.43
2023-08-07T05:16:11.681Z,15.50
2023-08-07T05:16:43.803Z,15.58
2023-08-07T05:17:15.799Z,15.56
2023-08-07T05:17:47.737Z,15.53
2023-08-07T05:18:20.426Z,15.56
2023-08-07T05:18:52.308Z,15.55
2023-08-07T05:19:24.269Z,15.53
2023-08-07T05:19:56.191Z,15.55
2023-08-07T05:20:28.238Z,15.58
2023-08-07T05:21:00.121Z,15.55
2023-08-07T05:21:32.063Z,15.53
2023-08-07T05:22:04.375Z,15.52
2023-08-07T05:22:36.293Z,15.57
2023-08-07T05:23:08.314Z,15.58
2023-08-07T05:23:40.282Z,15.59
2023-08-07T05:24:13.601Z,15.56
2023-08-07T05:24:46.657Z,15.52
2023-08-07T05:25:19.703Z,15.54
2023-08-07T05:25:51.767Z,15.52
2023-08-07T05:26:23.725Z,15.47
2023-08-07T05:26:55.620Z,15.47
2023-08-07T05:27:30.442Z,15.51
2023-08-07T05:28:02.422Z,15.52
2023-08-07T05:28:34.380Z,15.51
2023-08-07T05:29:08.187Z,15.47
2023-08-07T05:29:45.931Z,15.50
2023-08-07T05:30:17.865Z,15.55
2023-08-07T05:30:49.915Z,15.55
2023-08-07T05:31:21.909Z,15.51
2023-08-07T05:31:54.181Z,15.49
2023-08-07T05:32:26.402Z,15.52
2023-08-07T05:32:58.377Z,15.55
2023-08-07T05:33:30.322Z,15.51
2023-08-07T05:34:02.268Z,15.49
2023-08-07T05:34:34.177Z,15.47
2023-08-07T05:35:07.967Z,15.48
2023-08-07T05:35:40.573Z,15.50
2023-08-07T05:36:12.867Z,15.52
2023-08-07T05:36:44.779Z,15.49
2023-08-07T05:37:16.805Z,15.52
2023-08-07T05:37:48.776Z,15.56
2023-08-07T05:38:20.720Z,15.57
2023-08-07T05:38:52.813Z,15.60
2023-08-07T05:39:24.881Z,15.60
2023-08-07T05:39:56.754Z,15.62
2023-08-07T05:40:28.681Z,15.72
2023-08-07T05:41:00.588Z,15.78
2023-08-07T05:41:32.668Z,15.74
2023-08-07T05:42:05.012Z,15.72
2023-08-07T05:42:36.997Z,15.72
2023-08-07T05:43:09.881Z,15.77
2023-08-07T05:43:41.867Z,15.80
2023-08-07T05:44:13.759Z,15.81
2023-08-07T05:44:46.221Z,15.83
2023-08-07T05:45:18.103Z,15.86
2023-08-07T05:45:50.353Z,15.82
2023-08-07T05:46:22.360Z,15.85
2023-08-07T05:46:54.367Z,15.88
2023-08-07T05:47:26.515Z,15.89
2023-08-07T05:47:58.505Z,15.91
2023-08-07T05:48:30.464Z,15.93
2023-08-07T05:49:02.446Z,15.94
2023-08-07T05:49:34.807Z,15.95
2023-08-07T05:50:07.311Z,15.97
2023-08-07T05:50:39.194Z,15.97
2023-08-07T05:51:11.075Z,15.96
2023-08-07T05:51:43.024Z,16.05
2023-08-07T05:52:15.781Z,16.11
2023-08-07T05:52:47.728Z,16.15
2023-08-07T05:53:19.715Z,16.22
2023-08-07T05:53:51.658Z,16.26
2023-08-07T05:54:23.552Z,16.29
2023-08-07T05:54:55.423Z,16.27
2023-08-07T05:55:27.354Z,16.27
2023-08-07T05:55:59.287Z,16.25
2023-08-07T05:56:31.171Z,16.12
2023-08-07T05:57:03.170Z,16.08
2023-08-07T05:57:36.295Z,16.06
2023-08-07T05:58:08.209Z,16.11
2023-08-07T05:58:40.096Z,16.08
2023-08-07T05:59:12.078Z,16.15
2023-08-07T05:59:44.214Z,16.21
2023-08-07T06:00:18.955Z,16.18
2023-08-07T06:00:50.910Z,16.22
2023-08-07T06:01:23.469Z,16.23
2023-08-07T06:01:59.444Z,16.22
2023-08-07T06:02:32.333Z,16.19
2023-08-07T06:03:04.448Z,16.31
2023-08-07T06:03:36.413Z,16.43
2023-08-07T06:04:08.411Z,16.46
2023-08-07T06:04:42.084Z,16.49
2023-08-07T06:05:15.936Z,16.40
2023-08-07T06:05:48.117Z,16.43
2023-08-07T06:06:20.253Z,16.43
2023-08-07T06:06:52.222Z,16.55
2023-08-07T06:07:24.231Z,16.63
2023-08-07T06:07:56.076Z,16.64
2023-08-07T06:08:27.958Z,16.69
2023-08-07T06:09:01.179Z,16.72
2023-08-07T06:09:33.312Z,16.79
2023-08-07T06:10:06.216Z,16.73
2023-08-07T06:10:39.032Z,16.70
2023-08-07T06:11:10.895Z,16.63
2023-08-07T06:11:43.070Z,16.71
2023-08-07T06:12:14.974Z,16.73
2023-08-07T06:12:46.901Z,16.72
2023-08-07T06:13:30.398Z,16.82
2023-08-07T06:14:07.631Z,16.69
2023-08-07T06:14:39.801Z,16.64
2023-08-07T06:15:11.764Z,16.64
2023-08-07T06:15:43.695Z,16.52
2023-08-07T06:16:15.656Z,16.64
2023-08-07T06:16:47.675Z,16.63
2023-08-07T06:17:19.658Z,16.68
2023-08-07T06:17:53.212Z,16.71
2023-08-07T06:18:25.183Z,16.81
2023-08-07T06:18:57.094Z,16.87
2023-08-07T06:19:32.701Z,17.01
2023-08-07T06:20:06.260Z,17.08
2023-08-07T06:20:38.239Z,17.24
2023-08-07T06:21:11.903Z,17.28
2023-08-07T06:21:43.805Z,17.29
2023-08-07T06:22:15.727Z,17.25
2023-08-07T06:22:47.590Z,17.41
2023-08-07T06:23:20.532Z,17.53
2023-08-07T06:23:53.045Z,17.61
2023-08-07T06:24:26.406Z,17.57
2023-08-07T06:24:59.644Z,17.60
2023-08-07T06:25:31.575Z,17.72
2023-08-07T06:26:06.311Z,17.79
2023-08-07T06:26:38.239Z,17.93
2023-08-07T06:27:10.214Z,17.87
2023-08-07T06:27:42.081Z,17.92
2023-08-07T06:28:14.135Z,18.08
2023-08-07T06:28:46.252Z,18.16
2023-08-07T06:29:18.186Z,18.30
2023-08-07T06:29:50.088Z,18.34
2023-08-07T06:30:21.986Z,18.40
2023-08-07T06:30:53.924Z,18.50
2023-08-07T06:31:25.867Z,18.58
2023-08-07T06:31:58.001Z,18.62
2023-08-07T06:32:30.143Z,18.73
2023-08-07T06:33:02.126Z,18.88
2023-08-07T06:33:35.299Z,18.84
2023-08-07T06:34:07.188Z,18.83
2023-08-07T06:34:39.168Z,18.95
2023-08-07T06:35:11.255Z,18.85
2023-08-07T06:35:43.925Z,18.84
2023-08-07T06:36:15.835Z,18.68
2023-08-07T06:36:47.729Z,18.59
2023-08-07T06:37:20.230Z,18.63
2023-08-07T06:37:52.128Z,18.63
2023-08-07T06:38:24.036Z,18.53
2023-08-07T06:38:56.074Z,18.40
2023-08-07T06:39:28.477Z,18.31
2023-08-07T06:40:00.703Z,18.36
2023-08-07T06:40:32.707Z,18.27
2023-08-07T06:41:06.652Z,18.35
2023-08-07T06:41:39.194Z,18.46
2023-08-07T06:42:11.184Z,18.37
2023-08-07T06:42:43.143Z,18.44
2023-08-07T06:43:15.097Z,18.39
2023-08-07T06:43:47.151Z,18.37
2023-08-07T06:44:20.338Z,18.43
2023-08-07T06:44:52.359Z,18.32
2023-08-07T06:45:24.258Z,18.11
2023-08-07T06:45:57.892Z,18.25
2023-08-07T06:46:30.110Z,18.27
2023-08-07T06:47:02.249Z,18.24
2023-08-07T06:47:35.160Z,18.25
2023-08-07T06:48:07.218Z,18.20
2023-08-07T06:48:39.302Z,18.25
2023-08-07T06:49:11.934Z,18.45
2023-08-07T06:49:43.976Z,18.47
2023-08-07T06:50:16.421Z,18.53
2023-08-07T06:50:56.769Z,18.60
2023-08-07T06:51:28.703Z,18.48
2023-08-07T06:52:00.664Z,18.39
2023-08-07T06:52:32.583Z,18.25
2023-08-07T06:53:04.535Z,18.25
2023-08-07T06:53:36.405Z,18.15
2023-08-07T06:54:08.317Z,18.28
2023-08-07T06:54:40.211Z,18.40
2023-08-07T06:55:12.082Z,18.32
2023-08-07T06:55:44.165Z,18.12
2023-08-07T06:56:16.108Z,18.02
2023-08-07T06:56:48.121Z,18.04
2023-08-07T06:57:19.972Z,17.97
2023-08-07T06:57:51.861Z,18.05
2023-08-07T06:58:23.838Z,18.08
2023-08-07T06:58:55.756Z,18.32
2023-08-07T06:59:27.636Z,18.33
2023-08-07T06:59:59.539Z,18.29
2023-08-07T07:00:31.518Z,18.21
2023-08-07T07:01:03.488Z,18.30
2023-08-07T07:01:35.477Z,18.35
2023-08-07T07:02:07.802Z,18.39
2023-08-07T07:02:39.708Z,18.43
2023-08-07T07:03:11.790Z,18.47